createdAt,value
2019-05-18T00:00:08.488Z,11.73
2019-05-18T00:02:36.704Z,11.57
2019-05-18T00:05:06.848Z,10.95
2019-05-18T00:07:35.081Z,10.58
2019-05-18T00:10:04.157Z,11.03
2019-05-18T00:12:32.367Z,11.73
2019-05-18T00:15:00.577Z,13.40
2019-05-18T00:17:28.798Z,14.07
2019-05-18T00:19:56.996Z,12.78
2019-05-18T00:22:25.200Z,13.22
2019-05-18T00:24:53.496Z,12.50
2019-05-18T00:27:21.732Z,12.18
2019-05-18T00:29:49.951Z,12.23
2019-05-18T00:32:18.236Z,12.70
2019-05-18T00:34:46.454Z,13.48
2019-05-18T00:37:14.657Z,13.40
2019-05-18T00:39:42.869Z,14.15
2019-05-18T00:42:11.077Z,13.75
2019-05-18T00:44:39.282Z,12.82
2019-05-18T00:47:07.500Z,13.78
2019-05-18T00:49:35.721Z,12.37
2019-05-18T00:52:03.932Z,12.78
2019-05-18T00:54:32.139Z,14.00
2019-05-18T00:57:00.369Z,11.90
2019-05-18T00:59:28.580Z,11.68
2019-05-18T01:01:56.802Z,12.98
2019-05-18T01:04:25.008Z,15.13
2019-05-18T01:06:53.276Z,13.53
2019-05-18T01:09:21.541Z,15.28
2019-05-18T01:11:49.730Z,14.03
2019-05-18T01:14:17.948Z,13.98
2019-05-18T01:16:46.166Z,13.78
2019-05-18T01:19:14.370Z,15.95
2019-05-18T01:21:42.641Z,14.45
2019-05-18T01:24:10.863Z,16.48
2019-05-18T01:26:39.081Z,14.87
2019-05-18T01:29:07.291Z,13.10
2019-05-18T01:31:35.518Z,12.20
2019-05-18T01:34:03.733Z,12.10
2019-05-18T01:36:31.946Z,12.05
2019-05-18T01:39:00.164Z,14.60
2019-05-18T01:41:28.380Z,12.50
2019-05-18T01:43:56.578Z,13.50
2019-05-18T01:46:24.795Z,14.58
2019-05-18T01:48:52.995Z,13.93
2019-05-18T01:51:21.212Z,13.25
2019-05-18T01:53:49.416Z,12.88
2019-05-18T01:56:17.615Z,15.60
2019-05-18T01:58:45.833Z,16.30
2019-05-18T02:01:14.044Z,19.27
2019-05-18T02:03:42.265Z,21.12
2019-05-18T02:06:10.481Z,20.90
2019-05-18T02:08:38.722Z,19.87
2019-05-18T02:11:06.924Z,19.82
2019-05-18T02:13:35.132Z,23.12
2019-05-18T02:16:03.350Z,20.92
2019-05-18T02:18:31.556Z,18.00
2019-05-18T02:20:59.778Z,18.95
2019-05-18T02:23:27.991Z,18.20
2019-05-18T02:25:56.193Z,16.10
2019-05-18T02:28:24.411Z,16.93
2019-05-18T02:30:52.697Z,18.37
2019-05-18T02:33:20.927Z,18.87
2019-05-18T02:35:49.134Z,18.42
2019-05-18T02:38:18.227Z,18.05
2019-05-18T02:40:46.533Z,17.12
2019-05-18T02:43:15.721Z,18.35
2019-05-18T02:45:43.947Z,18.65
2019-05-18T02:48:12.139Z,18.23
2019-05-18T02:50:40.374Z,18.50
2019-05-18T02:53:08.574Z,16.70
2019-05-18T02:55:36.794Z,17.75
2019-05-18T02:58:05.005Z,17.30
2019-05-18T03:00:33.695Z,16.02
2019-05-18T03:03:01.903Z,16.23
2019-05-18T03:05:30.125Z,16.75
2019-05-18T03:07:58.333Z,16.40
2019-05-18T03:10:26.545Z,16.60
2019-05-18T03:12:54.758Z,20.12
2019-05-18T03:15:22.989Z,20.27
2019-05-18T03:17:51.203Z,22.48
2019-05-18T03:20:19.403Z,21.45
2019-05-18T03:22:47.626Z,19.95
2019-05-18T03:25:15.841Z,19.82
2019-05-18T03:27:44.053Z,19.80
2019-05-18T03:30:12.261Z,19.90
2019-05-18T03:32:40.497Z,20.48
2019-05-18T03:35:08.820Z,19.65
2019-05-18T03:37:37.089Z,20.05
2019-05-18T03:40:05.476Z,18.85
2019-05-18T03:42:33.780Z,17.50
2019-05-18T03:45:01.973Z,17.02
2019-05-18T03:47:30.202Z,16.93
2019-05-18T03:49:58.407Z,17.07
2019-05-18T03:52:26.609Z,17.40
2019-05-18T03:54:54.845Z,19.00
2019-05-18T03:57:23.116Z,18.42
2019-05-18T03:59:51.331Z,16.80
2019-05-18T04:02:19.546Z,19.17
2019-05-18T04:04:47.796Z,19.07
2019-05-18T04:07:16.000Z,23.15
2019-05-18T04:09:44.223Z,25.37
2019-05-18T04:12:12.433Z,25.77
2019-05-18T04:14:40.666Z,24.87
2019-05-18T04:17:08.874Z,22.37
2019-05-18T04:19:46.585Z,23.20
2019-05-18T04:22:07.028Z,21.95
2019-05-18T04:24:35.256Z,20.92
2019-05-18T04:27:03.464Z,21.37
2019-05-18T04:29:31.695Z,22.90
2019-05-18T04:31:59.887Z,24.45
2019-05-18T04:34:28.113Z,24.82
2019-05-18T04:36:56.333Z,25.30
2019-05-18T04:39:24.615Z,23.00
2019-05-18T04:41:52.957Z,18.40
2019-05-18T04:44:21.164Z,17.35
2019-05-18T04:46:49.353Z,16.97
2019-05-18T04:49:17.568Z,17.12
2019-05-18T04:51:45.799Z,16.27
2019-05-18T04:54:13.992Z,16.45
2019-05-18T04:56:43.154Z,17.75
2019-05-18T04:59:11.666Z,16.45
2019-05-18T05:01:39.874Z,17.45
2019-05-18T05:04:08.085Z,17.15
2019-05-18T05:06:36.295Z,17.87
2019-05-18T05:09:06.842Z,17.57
2019-05-18T05:11:35.055Z,17.10
2019-05-18T05:14:03.608Z,15.45
2019-05-18T05:16:31.839Z,16.60
2019-05-18T05:19:00.045Z,16.23
2019-05-18T05:21:28.264Z,16.23
2019-05-18T05:23:56.471Z,15.93
2019-05-18T05:26:24.764Z,15.13
2019-05-18T05:28:53.025Z,15.95
2019-05-18T05:31:21.260Z,14.53
2019-05-18T05:33:49.490Z,15.55
2019-05-18T05:36:17.725Z,12.63
2019-05-18T05:38:45.983Z,12.85
2019-05-18T05:41:16.647Z,13.68
2019-05-18T05:43:44.167Z,13.90
2019-05-18T05:46:12.381Z,14.90
2019-05-18T05:48:40.592Z,15.03
2019-05-18T05:51:08.801Z,15.05
2019-05-18T05:53:37.022Z,14.58
2019-05-18T05:56:05.239Z,15.32
2019-05-18T05:58:33.440Z,14.60
2019-05-18T06:01:01.740Z,15.43
2019-05-18T06:03:29.938Z,13.62
2019-05-18T06:05:58.148Z,14.90
2019-05-18T06:08:26.368Z,13.93
2019-05-18T06:10:54.691Z,13.30
2019-05-18T06:13:22.929Z,13.25
2019-05-18T06:15:51.172Z,12.82
2019-05-18T06:18:19.380Z,12.43
2019-05-18T06:20:51.611Z,13.00
2019-05-18T06:23:17.946Z,12.68
2019-05-18T06:25:46.153Z,11.38
2019-05-18T06:28:14.375Z,11.33
2019-05-18T06:30:42.587Z,11.05
2019-05-18T06:33:10.806Z,11.93
2019-05-18T06:35:39.020Z,11.68
2019-05-18T06:38:07.236Z,10.95
2019-05-18T06:40:35.440Z,9.88
2019-05-18T06:43:03.676Z,10.53
2019-05-18T06:45:31.888Z,9.78
2019-05-18T06:48:00.111Z,9.63
2019-05-18T06:50:29.649Z,8.85
2019-05-18T06:52:57.867Z,7.93
2019-05-18T06:55:26.520Z,8.60
2019-05-18T06:57:56.842Z,9.35
2019-05-18T07:00:25.088Z,8.25
2019-05-18T07:02:53.296Z,8.08
2019-05-18T07:05:21.578Z,7.20
2019-05-18T07:07:49.780Z,7.33
2019-05-18T07:10:17.997Z,7.12
2019-05-18T07:12:46.197Z,7.05
2019-05-18T07:15:16.030Z,7.15
2019-05-18T07:17:44.000Z,6.33
2019-05-18T07:20:12.214Z,5.10
2019-05-18T07:22:40.797Z,4.70
2019-05-18T07:25:08.985Z,4.60
2019-05-18T07:27:37.214Z,4.30
2019-05-18T07:30:06.844Z,4.40
2019-05-18T07:32:35.049Z,4.20
2019-05-18T07:35:03.278Z,3.95
2019-05-18T07:37:31.502Z,3.98
2019-05-18T07:39:59.703Z,4.12
2019-05-18T07:42:27.979Z,4.30
2019-05-18T07:44:56.180Z,3.95
2019-05-18T07:47:24.409Z,4.20
2019-05-18T07:49:52.611Z,6.53
2019-05-18T07:52:20.824Z,4.12
2019-05-18T07:54:49.196Z,4.15
2019-05-18T07:57:17.406Z,3.90
2019-05-18T07:59:45.619Z,3.12
2019-05-18T08:02:13.883Z,3.70
2019-05-18T08:04:42.194Z,3.80
2019-05-18T08:07:10.484Z,3.62
2019-05-18T08:09:38.723Z,4.72
2019-05-18T08:12:06.940Z,4.00
2019-05-18T08:14:35.265Z,5.15
2019-05-18T08:17:03.511Z,3.58
2019-05-18T08:19:31.777Z,4.50
2019-05-18T08:21:59.988Z,4.17
2019-05-18T08:24:28.217Z,3.75
2019-05-18T08:26:56.464Z,4.10
2019-05-18T08:29:24.730Z,3.80
2019-05-18T08:31:53.089Z,3.87
2019-05-18T08:34:21.363Z,4.10
2019-05-18T08:36:49.620Z,3.60
2019-05-18T08:39:17.856Z,3.15
2019-05-18T08:41:49.161Z,2.92
2019-05-18T08:44:18.034Z,2.83
2019-05-18T08:46:46.329Z,2.90
2019-05-18T08:49:16.300Z,2.65
2019-05-18T08:51:44.605Z,2.90
2019-05-18T08:54:12.829Z,2.60
2019-05-18T08:56:41.105Z,2.40
2019-05-18T08:59:09.389Z,2.77
2019-05-18T09:01:37.642Z,2.50
2019-05-18T09:04:07.598Z,2.45
2019-05-18T09:06:35.859Z,2.45
2019-05-18T09:09:05.931Z,2.20
2019-05-18T09:11:34.132Z,3.05
2019-05-18T09:14:02.348Z,2.40
2019-05-18T09:16:30.560Z,2.45
2019-05-18T09:18:58.788Z,2.52
2019-05-18T09:21:27.061Z,2.30
2019-05-18T09:24:14.770Z,2.35
2019-05-18T09:26:42.995Z,2.30
2019-05-18T09:29:11.247Z,2.72
2019-05-18T09:31:39.506Z,3.00
2019-05-18T09:34:07.738Z,2.92
2019-05-18T09:36:36.034Z,2.40
2019-05-18T09:39:06.170Z,2.85
2019-05-18T09:41:34.433Z,2.47
2019-05-18T09:44:02.807Z,2.00
2019-05-18T09:46:31.065Z,2.37
2019-05-18T09:48:59.331Z,2.40
2019-05-18T09:51:27.624Z,2.10
2019-05-18T09:53:55.859Z,1.82
2019-05-18T09:56:24.116Z,2.02
2019-05-18T09:58:52.393Z,1.80
2019-05-18T10:01:20.704Z,1.50
2019-05-18T10:03:48.963Z,1.70
2019-05-18T10:06:17.247Z,1.60
2019-05-18T10:08:45.548Z,1.55
2019-05-18T10:11:13.805Z,1.37
2019-05-18T10:13:42.046Z,1.60
2019-05-18T10:16:10.296Z,1.70
2019-05-18T10:18:38.541Z,1.50
2019-05-18T10:21:06.803Z,1.57
2019-05-18T10:23:35.058Z,1.40
2019-05-18T10:26:03.367Z,1.40
2019-05-18T10:28:31.611Z,1.22
2019-05-18T10:30:59.869Z,1.20
2019-05-18T10:33:28.098Z,1.52
2019-05-18T10:35:56.372Z,1.72
2019-05-18T10:38:24.598Z,1.85
2019-05-18T10:40:52.832Z,1.60
2019-05-18T10:43:21.094Z,1.50
2019-05-18T10:45:49.344Z,1.80
2019-05-18T10:48:17.607Z,1.40
2019-05-18T10:50:46.052Z,1.37
2019-05-18T10:53:27.974Z,1.30
2019-05-18T10:55:45.258Z,1.20
2019-05-18T11:00:41.130Z,1.30
2019-05-18T11:03:09.396Z,1.37
2019-05-18T11:05:37.666Z,1.20
2019-05-18T11:08:05.981Z,1.30
2019-05-18T11:10:34.988Z,1.42
2019-05-18T11:13:03.259Z,1.62
2019-05-18T11:15:31.503Z,1.20
2019-05-18T11:17:59.780Z,1.22
2019-05-18T11:20:28.117Z,1.35
2019-05-18T11:22:56.448Z,1.45
2019-05-18T11:25:24.734Z,1.45
2019-05-18T11:27:53.006Z,1.20
2019-05-18T11:30:21.375Z,1.45
2019-05-18T11:32:49.607Z,1.70
2019-05-18T11:35:17.855Z,1.22
2019-05-18T11:37:46.101Z,1.57
2019-05-18T11:40:16.124Z,1.45
2019-05-18T11:42:44.375Z,1.40
2019-05-18T11:45:12.918Z,1.30
2019-05-18T11:47:41.169Z,1.45
2019-05-18T11:50:09.784Z,1.42
2019-05-18T11:52:38.077Z,1.20
2019-05-18T11:55:06.376Z,1.30
2019-05-18T11:57:34.611Z,1.30
2019-05-18T12:00:03.276Z,1.30
2019-05-18T12:02:31.528Z,1.50
2019-05-18T12:04:59.763Z,1.20
2019-05-18T12:07:28.006Z,1.47
2019-05-18T12:09:56.258Z,1.50
2019-05-18T12:12:24.501Z,1.50
2019-05-18T12:14:52.735Z,1.60
2019-05-18T12:17:20.990Z,1.60
2019-05-18T12:19:52.327Z,1.40
2019-05-18T12:22:20.577Z,1.22
2019-05-18T12:24:48.828Z,1.52
2019-05-18T12:27:17.083Z,1.30
2019-05-18T12:29:45.347Z,1.30
2019-05-18T12:32:13.564Z,1.67
2019-05-18T12:34:44.739Z,1.55
2019-05-18T12:37:13.414Z,1.62
2019-05-18T12:39:41.679Z,1.30
2019-05-18T12:42:09.969Z,1.25
2019-05-18T12:44:38.235Z,1.40
2019-05-18T12:47:06.506Z,1.32
2019-05-18T12:49:34.797Z,1.30
2019-05-18T12:52:03.039Z,1.42
2019-05-18T12:54:45.539Z,1.37
2019-05-18T12:57:01.273Z,1.20
2019-05-18T12:59:29.530Z,1.15
2019-05-18T13:01:57.774Z,1.17
2019-05-18T13:04:26.004Z,1.25
2019-05-18T13:06:54.257Z,1.40
2019-05-18T13:09:23.789Z,1.42
2019-05-18T13:11:52.227Z,1.65
2019-05-18T13:14:20.495Z,1.20
2019-05-18T13:16:48.774Z,1.30
2019-05-18T13:19:17.021Z,1.45
2019-05-18T13:21:45.243Z,1.37
2019-05-18T13:24:13.519Z,1.30
2019-05-18T13:26:41.767Z,1.50
2019-05-18T13:29:10.007Z,1.40
2019-05-18T13:31:38.716Z,1.40
2019-05-18T13:34:15.945Z,1.32
2019-05-18T13:36:44.215Z,1.62
2019-05-18T13:39:12.536Z,1.40
2019-05-18T13:41:40.805Z,1.17
2019-05-18T13:44:09.044Z,1.25
2019-05-18T13:46:37.348Z,1.75
2019-05-18T13:49:05.637Z,1.40
2019-05-18T13:51:33.878Z,1.32
2019-05-18T13:54:02.113Z,1.65
2019-05-18T13:56:30.361Z,2.02
2019-05-18T13:58:58.604Z,1.37
2019-05-18T14:01:26.863Z,1.70
2019-05-18T14:03:55.112Z,1.30
2019-05-18T14:06:23.337Z,1.57
2019-05-18T14:08:51.617Z,1.60
2019-05-18T14:11:19.922Z,1.57
2019-05-18T14:13:48.153Z,1.60
2019-05-18T14:16:16.422Z,1.22
2019-05-18T14:18:44.657Z,1.32
2019-05-18T14:21:12.931Z,1.20
2019-05-18T14:23:41.203Z,14.73
2019-05-18T14:26:09.448Z,4.05
2019-05-18T14:28:37.698Z,5.80
2019-05-18T14:31:05.936Z,13.53
2019-05-18T14:33:34.220Z,1.87
2019-05-18T14:36:02.506Z,1.60
2019-05-18T14:38:30.774Z,2.17
2019-05-18T14:40:59.040Z,1.60
2019-05-18T14:43:27.263Z,1.47
2019-05-18T14:45:55.519Z,1.70
2019-05-18T14:48:23.773Z,1.60
2019-05-18T14:50:52.081Z,1.50
2019-05-18T14:53:20.337Z,1.70
2019-05-18T14:55:48.586Z,1.60
2019-05-18T14:58:16.870Z,1.40
2019-05-18T15:00:45.175Z,1.40
2019-05-18T15:03:13.430Z,1.50
2019-05-18T15:05:41.686Z,1.55
2019-05-18T15:08:09.929Z,21.45
2019-05-18T15:10:38.222Z,5.22
2019-05-18T15:13:06.521Z,1.47
2019-05-18T15:15:34.834Z,1.30
2019-05-18T15:18:03.152Z,1.50
2019-05-18T15:20:31.443Z,1.40
2019-05-18T15:22:59.679Z,1.40
2019-05-18T15:25:27.910Z,1.57
2019-05-18T15:27:56.195Z,1.50
2019-05-18T15:30:24.452Z,1.65
2019-05-18T15:32:52.702Z,1.90
2019-05-18T15:35:20.933Z,2.35
2019-05-18T15:37:49.187Z,1.95
2019-05-18T15:40:17.413Z,1.80
2019-05-18T15:42:45.658Z,1.50
2019-05-18T15:45:13.953Z,1.70
2019-05-18T15:47:42.176Z,1.82
2019-05-18T15:50:10.486Z,1.90
2019-05-18T15:52:38.727Z,1.90
2019-05-18T15:55:06.962Z,5.78
2019-05-18T15:57:35.059Z,5.25
2019-05-18T16:00:06.467Z,2.52
2019-05-18T16:02:33.854Z,3.02
2019-05-18T16:05:02.359Z,2.62
2019-05-18T16:07:30.566Z,2.90
2019-05-18T16:09:58.802Z,3.05
2019-05-18T16:12:27.075Z,3.10
2019-05-18T16:14:55.401Z,3.50
2019-05-18T16:17:38.077Z,2.25
2019-05-18T16:19:53.655Z,2.47
2019-05-18T16:22:22.058Z,2.52
2019-05-18T16:24:50.406Z,2.45
2019-05-18T16:27:18.682Z,2.67
2019-05-18T16:29:46.954Z,2.22
2019-05-18T16:32:15.183Z,2.12
2019-05-18T16:34:43.438Z,2.50
2019-05-18T16:37:11.657Z,2.50
2019-05-18T16:39:39.898Z,2.25
2019-05-18T16:42:08.161Z,2.02
2019-05-18T16:44:36.395Z,1.95
2019-05-18T16:47:04.625Z,2.00
2019-05-18T16:49:32.871Z,1.92
2019-05-18T16:52:01.169Z,2.62
2019-05-18T16:54:29.481Z,2.12
2019-05-18T16:56:57.714Z,2.62
2019-05-18T16:59:29.190Z,2.65
2019-05-18T17:01:57.508Z,2.90
2019-05-18T17:04:25.827Z,2.60
2019-05-18T17:06:54.056Z,2.77
2019-05-18T17:09:22.312Z,2.70
2019-05-18T17:11:50.582Z,2.67
2019-05-18T17:14:18.902Z,2.92
2019-05-18T17:16:47.218Z,2.55
2019-05-18T17:19:15.467Z,2.80
2019-05-18T17:21:45.731Z,2.67
2019-05-18T17:24:13.950Z,2.47
2019-05-18T17:26:52.259Z,2.40
2019-05-18T17:29:12.235Z,2.62
2019-05-18T17:31:40.483Z,2.77
2019-05-18T17:34:08.715Z,2.15
2019-05-18T17:36:36.966Z,2.60
2019-05-18T17:39:06.368Z,2.80
2019-05-18T17:41:34.619Z,2.70
2019-05-18T17:44:02.949Z,2.33
2019-05-18T17:46:31.193Z,2.27
2019-05-18T17:48:59.471Z,2.20
2019-05-18T17:51:27.679Z,2.10
2019-05-18T17:53:55.935Z,2.20
2019-05-18T17:56:24.201Z,2.42
2019-05-18T17:58:52.527Z,2.25
2019-05-18T18:01:20.851Z,3.20
2019-05-18T18:03:49.078Z,2.72
2019-05-18T18:06:19.423Z,2.12
2019-05-18T18:08:47.694Z,2.08
2019-05-18T18:11:15.922Z,1.72
2019-05-18T18:13:44.251Z,1.80
2019-05-18T18:16:12.478Z,2.35
2019-05-18T18:18:40.783Z,1.92
2019-05-18T18:21:09.052Z,1.62
2019-05-18T18:23:38.629Z,1.87
2019-05-18T18:26:07.013Z,1.90
2019-05-18T18:28:35.310Z,1.77
2019-05-18T18:31:03.554Z,2.10
2019-05-18T18:33:31.832Z,1.67
2019-05-18T18:36:00.073Z,1.92
2019-05-18T18:38:28.346Z,3.10
2019-05-18T18:40:56.591Z,2.58
2019-05-18T18:43:24.913Z,2.35
2019-05-18T18:45:53.177Z,1.87
2019-05-18T18:48:21.420Z,1.67
2019-05-18T18:50:49.678Z,2.10
2019-05-18T18:53:17.901Z,2.55
2019-05-18T18:55:46.161Z,3.00
2019-05-18T18:58:14.417Z,2.83
2019-05-18T19:00:42.684Z,2.80
2019-05-18T19:03:11.113Z,2.98
2019-05-18T19:05:39.438Z,3.05
2019-05-18T19:08:07.667Z,3.12
2019-05-18T19:10:35.909Z,2.87
2019-05-18T19:13:04.248Z,2.70
2019-05-18T19:15:32.641Z,2.62
2019-05-18T19:18:00.878Z,2.67
2019-05-18T19:20:29.200Z,2.95
2019-05-18T19:22:57.507Z,2.92
2019-05-18T19:25:25.769Z,3.30
2019-05-18T19:27:55.455Z,5.65
2019-05-18T19:30:23.873Z,4.30
2019-05-18T19:32:52.144Z,5.12
2019-05-18T19:35:20.425Z,3.98
2019-05-18T19:37:48.692Z,4.50
2019-05-18T19:40:16.985Z,3.35
2019-05-18T19:42:45.219Z,3.77
2019-05-18T19:45:13.515Z,3.35
2019-05-18T19:47:41.809Z,3.60
2019-05-18T19:50:10.910Z,3.55
2019-05-18T19:52:39.210Z,3.62
2019-05-18T19:55:07.443Z,3.75
2019-05-18T19:57:35.726Z,2.83
2019-05-18T20:00:05.803Z,2.98
2019-05-18T20:02:34.067Z,2.90
2019-05-18T20:05:08.082Z,2.40
2019-05-18T20:07:32.264Z,2.70
2019-05-18T20:10:00.535Z,2.33
2019-05-18T20:12:28.864Z,2.12
2019-05-18T20:14:57.119Z,2.20
2019-05-18T20:17:25.393Z,2.10
2019-05-18T20:19:53.828Z,2.40
2019-05-18T20:22:22.270Z,2.42
2019-05-18T20:24:50.555Z,2.17
2019-05-18T20:27:18.823Z,2.10
2019-05-18T20:29:47.076Z,2.10
2019-05-18T20:32:15.356Z,2.00
2019-05-18T20:34:43.651Z,2.27
2019-05-18T20:37:11.924Z,2.40
2019-05-18T20:39:40.143Z,2.70
2019-05-18T20:42:08.398Z,2.62
2019-05-18T20:44:36.663Z,2.77
2019-05-18T20:47:04.981Z,3.15
2019-05-18T20:49:33.245Z,3.22
2019-05-18T20:52:01.539Z,2.27
2019-05-18T20:54:29.829Z,2.25
2019-05-18T20:56:58.092Z,2.27
2019-05-18T20:59:26.361Z,2.30
2019-05-18T21:01:54.704Z,2.40
2019-05-18T21:04:22.998Z,2.20
2019-05-18T21:06:51.294Z,3.10
2019-05-18T21:09:19.521Z,3.67
2019-05-18T21:11:47.781Z,3.70
2019-05-18T21:14:16.002Z,3.35
2019-05-18T21:16:44.247Z,3.22
2019-05-18T21:19:12.488Z,3.20
2019-05-18T21:21:40.782Z,3.12
2019-05-18T21:24:09.037Z,3.10
2019-05-18T21:26:37.338Z,2.90
2019-05-18T21:29:05.588Z,2.67
2019-05-18T21:31:33.838Z,3.17
2019-05-18T21:34:02.148Z,2.85
2019-05-18T21:36:30.433Z,3.20
2019-05-18T21:38:58.677Z,3.00
2019-05-18T21:41:26.957Z,3.35
2019-05-18T21:43:55.209Z,3.45
2019-05-18T21:46:23.427Z,3.80
2019-05-18T21:48:51.709Z,4.05
2019-05-18T21:51:19.935Z,3.95
2019-05-18T21:53:48.190Z,3.37
2019-05-18T21:56:16.507Z,3.65
2019-05-18T21:58:44.775Z,2.80
2019-05-18T22:01:13.091Z,2.87
2019-05-18T22:03:45.810Z,3.30
2019-05-18T22:06:11.401Z,3.30
2019-05-18T22:08:39.770Z,3.45
2019-05-18T22:11:08.044Z,2.60
2019-05-18T22:13:36.292Z,3.00
2019-05-18T22:16:04.663Z,3.47
2019-05-18T22:18:33.203Z,3.20
2019-05-18T22:21:01.475Z,3.08
2019-05-18T22:23:29.705Z,3.22
2019-05-18T22:25:57.930Z,3.47
2019-05-18T22:28:26.196Z,3.58
2019-05-18T22:30:54.438Z,3.80
2019-05-18T22:33:22.682Z,3.02
2019-05-18T22:35:50.902Z,3.10
2019-05-18T22:38:19.163Z,3.58
2019-05-18T22:40:47.478Z,3.10
2019-05-18T22:43:15.746Z,3.50
2019-05-18T22:45:43.980Z,3.27
2019-05-18T22:48:12.223Z,3.58
2019-05-18T22:50:40.459Z,3.20
2019-05-18T22:53:08.719Z,3.25
2019-05-18T22:55:36.966Z,3.12
2019-05-18T22:58:05.199Z,2.92
2019-05-18T23:00:33.460Z,3.55
2019-05-18T23:03:01.742Z,3.35
2019-05-18T23:05:29.950Z,3.15
2019-05-18T23:07:58.218Z,3.25
2019-05-18T23:10:26.466Z,3.33
2019-05-18T23:12:54.737Z,3.40
2019-05-18T23:15:22.997Z,3.60
2019-05-18T23:17:51.232Z,3.58
2019-05-18T23:20:19.511Z,3.30
2019-05-18T23:22:47.750Z,2.95
2019-05-18T23:25:15.991Z,4.85
2019-05-18T23:27:44.241Z,4.30
2019-05-18T23:30:12.661Z,3.40
2019-05-18T23:32:40.919Z,2.77
2019-05-18T23:35:09.210Z,3.10
2019-05-18T23:37:37.445Z,3.02
2019-05-18T23:40:05.711Z,2.70
2019-05-18T23:42:33.969Z,2.80
2019-05-18T23:45:02.196Z,3.05
2019-05-18T23:47:30.440Z,3.80
2019-05-18T23:49:58.758Z,3.33
2019-05-18T23:52:26.994Z,3.10
2019-05-18T23:54:55.245Z,3.12
2019-05-18T23:57:23.496Z,3.30
2019-05-18T23:59:51.753Z,3.77
